EFUT

Utti Air Base Airport

Utti / Valkeala, Finland
METAR EFUT 220720Z 30014KT 260V350 9999 -SHRA BKN009 09/07 Q1003
Observed Flight Rules
Oct-22 @ 07:20 UTC (27 minutes ago) Instrument Flight Rules
Wind Visibility Clouds Conditions
300° at 14 knots 10,000+ meters
  • Broken at 900' AGL
  • Light Rain
Temperatures Readings
Current 9°C / 48°F
Dewpoint 7°C / 45°F
Humidity 87%
Altimeter 29.62" Hg
Pressure 1003 hPa
Elevation 100
METAR EFUT 220720Z 30014KT 260V350 9999 -SHRA BKN009 09/07 Q1003
Observed Flight Rules
Oct-22 @ 07:20 UTC
(27 minutes ago)
IFR
Wind Visibility
300° at 14 knots 10,000+ meters
Clouds
  • Broken at 900' AGL
Conditions
  • Light Rain
Temperature Dewpoint
9°C / 48°F 7°C / 45°F
Humidity Altimeter Pressure
87% 29.62" Hg 1003 hPa